Time;durP1;ratioP1;P1;durP2;ratioP2;P2;SDS_P1;SDS_P2;PMS_P1;PMS_P2;Temp;Humidity;BMP_temperature;BMP_pressure;BME280_temperature;BME280_humidity;BME280_pressure;Samples;Min_cycle;Max_cycle;Signal;HPM_P1;HPM_P2
2022/06/06 00:05:50;;;;;;;0.20;0.00;;;22.70;99.90;;;;;;26299644;22;20189;-74
2022/06/06 00:15:55;;;;;;;0.20;0.00;;;22.50;99.90;;;;;;26301102;22;20172;-75
2022/06/06 00:26:01;;;;;;;0.20;0.00;;;22.20;99.90;;;;;;26299989;22;20183;-75
2022/06/06 00:36:07;;;;;;;0.20;0.00;;;22.00;99.90;;;;;;26270830;22;20181;-76
2022/06/06 00:46:11;;;;;;;0.20;0.00;;;21.80;99.90;;;;;;26307505;22;20193;-76
2022/06/06 00:56:21;;;;;;;0.20;0.00;;;21.70;99.90;;;;;;26306161;22;20199;-75
2022/06/06 01:06:27;;;;;;;0.20;0.00;;;21.60;99.90;;;;;;26307715;22;20201;-75
2022/06/06 01:16:47;;;;;;;0.20;0.00;;;21.60;99.90;;;;;;26303886;22;20155;-75
2022/06/06 01:27:15;;;;;;;0.20;0.00;;;21.50;99.90;;;;;;26307262;22;20177;-75
2022/06/06 01:37:29;;;;;;;0.20;0.00;;;21.40;99.90;;;;;;26306584;22;20202;-78
2022/06/06 01:47:35;;;;;;;0.20;0.00;;;21.30;99.90;;;;;;26308089;22;20162;-76
2022/06/06 01:57:40;;;;;;;0.20;0.00;;;21.10;99.90;;;;;;26302812;22;20206;-76
2022/06/06 02:07:45;;;;;;;0.20;0.00;;;21.10;99.90;;;;;;26306050;22;20163;-75
2022/06/06 02:17:51;;;;;;;0.20;0.00;;;21.20;99.90;;;;;;26302481;22;20191;-75
2022/06/06 02:27:55;;;;;;;0.20;0.00;;;21.10;99.90;;;;;;26278411;22;20170;-75
2022/06/06 02:38:00;;;;;;;0.20;0.10;;;21.00;99.90;;;;;;26302649;22;20183;-76
2022/06/06 02:48:04;;;;;;;0.20;0.00;;;21.00;99.90;;;;;;26276921;22;20170;-74
2022/06/06 02:58:10;;;;;;;0.20;0.00;;;21.00;99.90;;;;;;26276182;22;20199;-73
2022/06/06 03:08:23;;;;;;;0.20;0.00;;;21.00;99.90;;;;;;26302228;22;20163;-75
2022/06/06 03:29:12;;;;;;;0.20;0.00;;;20.90;99.90;;;;;;26301602;22;20180;-77
2022/06/06 03:39:23;;;;;;;0.20;0.00;;;20.90;99.90;;;;;;26300629;22;20179;-76
2022/06/06 03:49:40;;;;;;;0.20;0.10;;;20.70;99.90;;;;;;26273194;22;20186;-76
2022/06/06 03:59:49;;;;;;;0.20;0.10;;;20.50;99.90;;;;;;26275023;22;20201;-78
2022/06/06 04:09:53;;;;;;;0.20;0.10;;;20.50;99.90;;;;;;26300407;22;20163;-76
2022/06/06 04:20:08;;;;;;;0.20;0.10;;;20.60;99.90;;;;;;26298750;22;20205;-79
2022/06/06 04:30:20;;;;;;;0.20;0.10;;;20.50;99.90;;;;;;26300119;22;20151;-79
2022/06/06 04:40:37;;;;;;;0.20;0.00;;;20.10;99.90;;;;;;26273509;22;20193;-78
2022/06/06 04:50:42;;;;;;;0.20;0.00;;;20.00;99.90;;;;;;26271091;22;20203;-77
2022/06/06 05:00:48;;;;;;;0.20;0.00;;;20.10;99.90;;;;;;26299094;22;20178;-77
2022/06/06 05:11:02;;;;;;;0.20;0.10;;;20.30;99.90;;;;;;26297203;22;20356;-75
2022/06/06 05:21:21;;;;;;;0.20;0.10;;;20.60;99.90;;;;;;26297413;22;20189;-77
2022/06/06 05:31:48;;;;;;;0.20;0.00;;;20.90;99.90;;;;;;26305112;22;20266;-74
2022/06/06 05:42:18;;;;;;;0.20;0.00;;;21.20;99.90;;;;;;26250651;22;20277;-76
2022/06/06 05:52:38;;;;;;;0.20;0.00;;;21.60;99.90;;;;;;26303287;22;20197;-78
2022/06/06 06:03:17;;;;;;;0.20;0.00;;;22.00;99.90;;;;;;26302209;22;20190;-75
2022/06/06 06:13:55;;;;;;;0.20;0.00;;;22.30;99.90;;;;;;26276618;22;20177;-75
2022/06/06 06:24:04;;;;;;;0.20;0.00;;;22.80;99.90;;;;;;26301908;22;20200;-76
2022/06/06 06:34:32;;;;;;;0.20;0.00;;;23.40;99.90;;;;;;26275774;22;20217;-76
2022/06/06 06:44:41;;;;;;;0.20;0.00;;;23.50;99.90;;;;;;26268616;22;20277;-75
2022/06/06 06:54:57;;;;;;;0.20;0.00;;;23.50;99.90;;;;;;26299928;22;20217;-76
2022/06/06 07:15:46;;;;;;;0.20;0.00;;;23.50;99.90;;;;;;26272351;22;20171;-77
2022/06/06 07:25:54;;;;;;;0.20;0.00;;;23.40;99.90;;;;;;26291915;22;20182;-75
2022/06/06 07:36:09;;;;;;;0.20;0.10;;;23.20;99.90;;;;;;26270747;22;20174;-76
2022/06/06 07:46:38;;;;;;;0.20;0.00;;;23.40;99.90;;;;;;26270366;22;20193;-75
2022/06/06 07:56:53;;;;;;;0.20;0.00;;;23.60;99.90;;;;;;26293572;22;20198;-76
2022/06/06 08:07:10;;;;;;;0.20;0.00;;;23.90;99.90;;;;;;26297463;22;20189;-74
2022/06/06 08:17:26;;;;;;;0.20;0.00;;;24.00;99.90;;;;;;26297208;22;20193;-76
2022/06/06 08:27:34;;;;;;;0.20;0.00;;;24.30;99.90;;;;;;26293887;22;20190;-74
2022/06/06 08:38:07;;;;;;;0.20;0.00;;;24.50;99.90;;;;;;26294140;22;20175;-75
2022/06/06 08:48:27;;;;;;;0.20;0.00;;;24.80;99.90;;;;;;26293475;22;20167;-75
2022/06/06 08:58:57;;;;;;;0.20;0.00;;;25.00;99.90;;;;;;26266426;22;20209;-75
2022/06/06 09:09:34;;;;;;;0.20;0.00;;;25.30;99.90;;;;;;26300197;22;20147;-75
2022/06/06 09:20:21;;;;;;;0.20;0.00;;;25.40;99.90;;;;;;26268137;22;20213;-75
2022/06/06 09:30:44;;;;;;;0.20;0.00;;;25.60;99.90;;;;;;26275091;22;20167;-73
2022/06/06 09:41:22;;;;;;;0.20;0.10;;;25.90;99.90;;;;;;26301221;22;20190;-78
2022/06/06 09:51:58;;;;;;;0.20;0.00;;;26.00;99.90;;;;;;26298721;22;20257;-73
2022/06/06 10:02:46;;;;;;;0.20;0.10;;;26.00;99.90;;;;;;26294835;22;20250;-74
2022/06/06 10:13:06;;;;;;;0.20;0.00;;;26.20;99.90;;;;;;26298130;22;20163;-74
2022/06/06 10:23:24;;;;;;;0.20;0.00;;;26.60;99.90;;;;;;26299891;22;20204;-73
2022/06/06 10:33:55;;;;;;;0.20;0.10;;;27.10;99.90;;;;;;26269295;22;20174;-72
2022/06/06 10:44:29;;;;;;;0.20;0.00;;;27.30;99.90;;;;;;26294926;22;20258;-75
2022/06/06 10:55:15;;;;;;;0.20;0.00;;;27.40;99.90;;;;;;26296094;22;20194;-73
2022/06/06 11:05:54;;;;;;;0.20;0.00;;;27.90;99.90;;;;;;26274045;22;20594;-76
2022/06/06 11:16:43;;;;;;;0.20;0.00;;;27.90;99.90;;;;;;26270564;22;20158;-73
2022/06/06 11:27:24;;;;;;;0.20;0.00;;;28.60;99.90;;;;;;26293543;22;20179;-72
2022/06/06 11:38:14;;;;;;;0.20;0.00;;;28.20;99.90;;;;;;26244878;22;20668;-73
2022/06/06 11:48:42;;;;;;;0.20;0.10;;;28.80;99.90;;;;;;26294370;22;20193;-75
2022/06/06 11:59:17;;;;;;;0.20;0.00;;;29.90;99.90;;;;;;26291156;22;20190;-76
2022/06/06 12:09:35;;;;;;;0.20;0.00;;;30.00;99.90;;;;;;26294021;22;20178;-76
2022/06/06 12:20:03;;;;;;;0.20;0.00;;;30.10;99.90;;;;;;26295625;22;20183;-76
2022/06/06 12:30:31;;;;;;;0.20;0.00;;;30.60;99.90;;;;;;26266953;22;20212;-76
2022/06/06 12:40:49;;;;;;;0.20;0.00;;;30.80;99.90;;;;;;26303085;22;20186;-74
2022/06/06 12:51:02;;;;;;;0.20;0.00;;;31.30;99.90;;;;;;26303854;22;20204;-71
2022/06/06 13:11:52;;;;;;;0.20;0.00;;;31.00;99.90;;;;;;26276601;22;20261;-74
2022/06/06 13:22:09;;;;;;;0.20;0.00;;;31.90;99.90;;;;;;26300694;22;20175;-72
2022/06/06 13:32:27;;;;;;;0.20;0.00;;;31.40;99.90;;;;;;26273184;22;20169;-74
2022/06/06 13:42:49;;;;;;;0.20;0.00;;;32.10;99.90;;;;;;26298920;22;20179;-72
2022/06/06 13:53:17;;;;;;;0.20;0.00;;;32.70;99.90;;;;;;26274143;22;20186;-73
2022/06/06 14:03:41;;;;;;;0.20;0.00;;;31.80;99.90;;;;;;26296404;22;20179;-72
2022/06/06 14:13:51;;;;;;;0.20;0.00;;;31.40;99.90;;;;;;26295730;22;20162;-72
2022/06/06 14:24:11;;;;;;;0.20;0.00;;;32.00;99.90;;;;;;26295938;22;20194;-72
2022/06/06 14:34:22;;;;;;;0.20;0.00;;;31.70;99.90;;;;;;26296262;22;20172;-73
2022/06/06 14:44:32;;;;;;;0.20;0.00;;;31.80;99.90;;;;;;26292225;22;20174;-72
2022/06/06 14:54:38;;;;;;;0.20;0.00;;;31.60;99.90;;;;;;26293700;22;20262;-74
2022/06/06 15:04:42;;;;;;;0.20;0.00;;;31.90;99.90;;;;;;26295013;22;20198;-72
2022/06/06 15:14:48;;;;;;;0.20;0.00;;;31.50;99.90;;;;;;26292913;22;20173;-72
2022/06/06 15:24:52;;;;;;;0.20;0.00;;;32.40;99.90;;;;;;26295284;22;20185;-73
2022/06/06 15:35:07;;;;;;;0.20;0.00;;;31.70;99.90;;;;;;26286999;22;20171;-73
2022/06/06 15:45:24;;;;;;;0.20;0.10;;;29.80;99.90;;;;;;26264721;22;20184;-73
2022/06/06 15:55:37;;;;;;;0.20;0.00;;;28.30;99.90;;;;;;26287968;22;20190;-74
2022/06/06 16:05:44;;;;;;;0.20;0.00;;;29.60;99.90;;;;;;26292747;22;20248;-71
2022/06/06 16:15:57;;;;;;;0.20;0.03;;;31.50;99.90;;;;;;26290276;22;20166;-73
2022/06/06 16:26:05;;;;;;;0.20;0.10;;;28.40;99.90;;;;;;26289381;22;20179;-75
2022/06/06 16:36:12;;;;;;;0.20;0.00;;;27.00;99.90;;;;;;26288534;22;20163;-73
2022/06/06 16:57:05;;;;;;;0.20;0.00;;;28.70;99.90;;;;;;26289322;22;20233;-73
2022/06/06 17:18:02;;;;;;;0.20;0.00;;;29.50;99.90;;;;;;26287612;22;20235;-74
2022/06/06 17:28:29;;;;;;;0.20;0.00;;;30.60;99.90;;;;;;26269346;22;20220;-74
2022/06/06 17:38:40;;;;;;;0.20;0.00;;;31.20;99.90;;;;;;26288087;22;20208;-72
2022/06/06 17:48:59;;;;;;;0.20;0.00;;;28.70;99.90;;;;;;26288513;22;20191;-73
2022/06/06 17:59:14;;;;;;;0.20;0.00;;;26.80;99.90;;;;;;26284159;22;20205;-73
2022/06/06 18:09:51;;;;;;;0.20;0.00;;;25.60;99.90;;;;;;26285759;22;20178;-76
2022/06/06 18:19:56;;;;;;;0.20;0.10;;;25.40;99.90;;;;;;26292087;22;20147;-76
2022/06/06 18:30:05;;;;;;;0.20;0.00;;;25.10;99.90;;;;;;26293183;22;20159;-77
2022/06/06 20:26:18;;;;;;;0.20;0.00;;;24.40;99.90;;;;;;26165094;22;1944818;-76
2022/06/06 20:36:26;;;;;;;0.20;0.00;;;24.40;99.90;;;;;;26167973;22;20147;-77
2022/06/06 20:46:32;;;;;;;0.20;0.00;;;24.00;99.90;;;;;;26140222;22;20194;-76
2022/06/06 20:56:38;;;;;;;0.20;0.00;;;23.90;99.90;;;;;;26167028;22;20187;-75
2022/06/06 21:06:45;;;;;;;0.20;0.00;;;23.70;99.90;;;;;;26166259;22;20202;-77
2022/06/06 21:17:00;;;;;;;0.20;0.10;;;23.60;99.90;;;;;;26167618;22;20178;-76
2022/06/06 21:27:06;;;;;;;0.20;0.00;;;23.70;99.90;;;;;;26139411;22;20207;-76
2022/06/06 21:37:13;;;;;;;0.20;0.00;;;23.80;99.90;;;;;;26165246;22;20166;-77
2022/06/06 21:47:19;;;;;;;0.20;0.00;;;23.70;99.90;;;;;;26138190;22;20194;-76
2022/06/06 21:57:22;;;;;;;0.20;0.00;;;23.60;99.90;;;;;;26140553;22;20195;-77
2022/06/06 22:07:28;;;;;;;0.20;0.00;;;23.30;99.90;;;;;;26165254;22;20179;-77
2022/06/06 22:17:35;;;;;;;0.20;0.10;;;23.20;99.90;;;;;;26135105;22;20170;-72
2022/06/06 22:27:40;;;;;;;0.20;0.00;;;23.20;99.90;;;;;;26134827;22;20214;-72
2022/06/06 22:37:44;;;;;;;0.20;0.00;;;22.70;99.90;;;;;;26139983;22;20163;-72
2022/06/06 22:47:49;;;;;;;0.20;0.00;;;22.50;99.90;;;;;;26166159;22;20247;-73
2022/06/06 22:57:53;;;;;;;0.20;0.00;;;22.30;99.90;;;;;;26168959;22;20201;-73
2022/06/06 23:07:58;;;;;;;0.20;0.00;;;22.20;99.90;;;;;;26138149;22;20175;-71
2022/06/06 23:18:02;;;;;;;0.20;0.00;;;21.90;99.90;;;;;;26138289;22;20391;-72
2022/06/06 23:28:08;;;;;;;0.20;0.00;;;21.90;99.90;;;;;;26167848;22;20203;-72
2022/06/06 23:38:15;;;;;;;0.20;0.00;;;21.80;99.90;;;;;;26175981;22;20163;-72
2022/06/06 23:48:25;;;;;;;0.20;0.00;;;21.70;99.90;;;;;;26175435;22;20187;-72
2022/06/06 23:58:31;;;;;;;0.20;0.00;;;21.60;99.90;;;;;;26145662;22;20213;-73
